TimeMDT,TemperatureF,Dew PointF,Humidity,Sea Level PressureIn,VisibilityMPH,Wind Direction,Wind SpeedMPH,Gust SpeedMPH,PrecipitationIn,Events,Conditions,WindDirDegrees,DateUTC
12:52 AM,43.0,35.1,74,29.95,10.0,NW,15.0,-,N/A,,Overcast,320,2012-10-09 06:52:00
1:08 AM,42.8,35.6,76,29.95,10.0,NNW,18.4,25.3,N/A,,Overcast,330,2012-10-09 07:08:00
1:52 AM,41.0,34.0,76,29.98,10.0,NNW,21.9,29.9,N/A,,Overcast,330,2012-10-09 07:52:00
2:01 AM,41.0,33.8,76,29.97,10.0,NNW,20.7,27.6,N/A,,Overcast,330,2012-10-09 08:01:00
2:29 AM,41.0,33.8,76,29.97,10.0,NNW,21.9,31.1,N/A,,Overcast,340,2012-10-09 08:29:00
2:40 AM,37.4,33.8,87,29.98,9.0,NNW,21.9,36.8,0.00,Rain,Light Rain,340,2012-10-09 08:40:00
2:48 AM,37.4,33.8,87,29.97,10.0,NNW,19.6,28.8,0.00,,Overcast,340,2012-10-09 08:48:00
2:52 AM,37.9,32.0,79,30.00,10.0,NNW,20.7,27.6,0.00,,Overcast,330,2012-10-09 08:52:00
3:03 AM,37.4,30.2,75,29.98,10.0,NNW,26.5,34.5,N/A,,Overcast,330,2012-10-09 09:03:00
3:52 AM,37.0,30.0,76,30.01,10.0,NNW,25.3,34.5,N/A,,Overcast,340,2012-10-09 09:52:00
4:52 AM,35.6,28.4,75,30.00,10.0,NW,16.1,-,N/A,,Mostly Cloudy,320,2012-10-09 10:52:00
5:52 AM,35.1,26.1,70,30.05,10.0,NNW,10.4,-,N/A,,Clear,330,2012-10-09 11:52:00
6:52 AM,33.1,25.0,72,30.07,10.0,NNW,9.2,-,N/A,,Scattered Clouds,330,2012-10-09 12:52:00
7:52 AM,37.9,26.1,62,30.09,10.0,NW,13.8,-,N/A,,Clear,320,2012-10-09 13:52:00
8:52 AM,41.0,28.0,60,30.10,10.0,NW,18.4,-,N/A,,Clear,310,2012-10-09 14:52:00
9:52 AM,43.0,28.9,58,30.12,10.0,NW,17.3,28.8,N/A,,Overcast,310,2012-10-09 15:52:00
10:52 AM,42.1,28.0,58,30.13,10.0,NNW,19.6,28.8,N/A,,Overcast,330,2012-10-09 16:52:00
11:52 AM,37.9,30.9,76,30.16,10.0,NNW,21.9,31.1,N/A,,Overcast,340,2012-10-09 17:52:00
12:52 PM,39.0,27.0,62,30.15,10.0,NNW,19.6,32.2,N/A,,Overcast,340,2012-10-09 18:52:00
1:52 PM,44.1,28.0,53,30.14,10.0,North,24.2,32.2,N/A,,Overcast,350,2012-10-09 19:52:00
2:52 PM,45.0,26.1,48,30.14,10.0,North,23.0,31.1,N/A,,Clear,350,2012-10-09 20:52:00
3:52 PM,46.0,27.0,47,30.13,10.0,NNW,19.6,26.5,N/A,,Clear,340,2012-10-09 21:52:00
4:52 PM,46.0,27.0,47,30.15,10.0,NNW,23.0,28.8,N/A,,Partly Cloudy,330,2012-10-09 22:52:00
5:52 PM,44.1,26.1,49,30.15,10.0,NNW,19.6,26.5,N/A,,Overcast,330,2012-10-09 23:52:00
6:52 PM,41.0,28.0,60,30.18,10.0,North,5.8,-,N/A,,Overcast,350,2012-10-10 00:52:00
7:52 PM,42.8,28.4,57,30.12,10.0,NNW,10.4,-,N/A,,Overcast,340,2012-10-10 01:52:00
8:52 PM,39.0,28.0,65,30.18,10.0,North,9.2,-,N/A,,Overcast,350,2012-10-10 02:52:00
9:52 PM,37.9,28.0,68,30.19,10.0,SW,4.6,-,N/A,,Scattered Clouds,220,2012-10-10 03:52:00
10:52 PM,37.0,27.0,67,30.18,10.0,Calm,Calm,-,N/A,,Overcast,0,2012-10-10 04:52:00
11:52 PM,35.1,26.1,70,30.19,10.0,Calm,Calm,-,N/A,,Mostly Cloudy,0,2012-10-10 05:52:00